sensor_id;sensor_type;location;lat;lon;timestamp;P1;durP1;ratioP1;P2;durP2;ratioP2
6412;SDS011;3239;48.714;9.472;2022-12-07T00:01:23;7.90;;;5.93;;
6412;SDS011;3239;48.714;9.472;2022-12-07T00:03:51;8.23;;;6.70;;
6412;SDS011;3239;48.714;9.472;2022-12-07T00:06:22;6.80;;;5.67;;
6412;SDS011;3239;48.714;9.472;2022-12-07T00:08:47;7.00;;;6.17;;
6412;SDS011;3239;48.714;9.472;2022-12-07T00:11:15;6.83;;;5.97;;
6412;SDS011;3239;48.714;9.472;2022-12-07T00:13:44;8.10;;;6.93;;
6412;SDS011;3239;48.714;9.472;2022-12-07T00:16:14;8.47;;;7.07;;
6412;SDS011;3239;48.714;9.472;2022-12-07T00:18:43;8.70;;;7.00;;
6412;SDS011;3239;48.714;9.472;2022-12-07T00:21:18;11.67;;;7.77;;
6412;SDS011;3239;48.714;9.472;2022-12-07T00:23:52;11.30;;;7.60;;
6412;SDS011;3239;48.714;9.472;2022-12-07T00:28:52;12.67;;;7.87;;
6412;SDS011;3239;48.714;9.472;2022-12-07T00:31:26;8.20;;;7.30;;
6412;SDS011;3239;48.714;9.472;2022-12-07T00:33:55;9.83;;;7.17;;
6412;SDS011;3239;48.714;9.472;2022-12-07T00:36:22;9.17;;;7.73;;
6412;SDS011;3239;48.714;9.472;2022-12-07T00:38:49;8.57;;;7.67;;
6412;SDS011;3239;48.714;9.472;2022-12-07T00:41:15;8.47;;;7.50;;
6412;SDS011;3239;48.714;9.472;2022-12-07T00:43:44;12.13;;;7.70;;
6412;SDS011;3239;48.714;9.472;2022-12-07T00:46:11;8.60;;;7.33;;
6412;SDS011;3239;48.714;9.472;2022-12-07T00:48:38;10.70;;;7.80;;
6412;SDS011;3239;48.714;9.472;2022-12-07T00:51:05;10.17;;;7.93;;
6412;SDS011;3239;48.714;9.472;2022-12-07T00:53:33;8.40;;;7.27;;
6412;SDS011;3239;48.714;9.472;2022-12-07T00:58:34;8.43;;;7.50;;
6412;SDS011;3239;48.714;9.472;2022-12-07T01:01:00;12.17;;;8.30;;
6412;SDS011;3239;48.714;9.472;2022-12-07T01:03:28;8.87;;;7.63;;
6412;SDS011;3239;48.714;9.472;2022-12-07T01:05:55;8.73;;;7.10;;
6412;SDS011;3239;48.714;9.472;2022-12-07T01:08:21;8.33;;;7.27;;
6412;SDS011;3239;48.714;9.472;2022-12-07T01:10:48;7.50;;;6.70;;
6412;SDS011;3239;48.714;9.472;2022-12-07T01:13:21;10.00;;;7.40;;
6412;SDS011;3239;48.714;9.472;2022-12-07T01:15:47;9.37;;;7.23;;
6412;SDS011;3239;48.714;9.472;2022-12-07T01:18:13;8.40;;;7.43;;
6412;SDS011;3239;48.714;9.472;2022-12-07T01:20:39;12.63;;;7.73;;
6412;SDS011;3239;48.714;9.472;2022-12-07T01:23:05;10.57;;;7.50;;
6412;SDS011;3239;48.714;9.472;2022-12-07T01:25:31;11.10;;;7.73;;
6412;SDS011;3239;48.714;9.472;2022-12-07T01:27:57;9.27;;;7.63;;
6412;SDS011;3239;48.714;9.472;2022-12-07T01:30:22;9.87;;;8.23;;
6412;SDS011;3239;48.714;9.472;2022-12-07T01:32:48;10.60;;;8.60;;
6412;SDS011;3239;48.714;9.472;2022-12-07T01:35:14;8.30;;;7.37;;
6412;SDS011;3239;48.714;9.472;2022-12-07T01:37:39;10.67;;;8.00;;
6412;SDS011;3239;48.714;9.472;2022-12-07T01:40:06;10.43;;;7.60;;
6412;SDS011;3239;48.714;9.472;2022-12-07T01:42:33;10.53;;;8.57;;
6412;SDS011;3239;48.714;9.472;2022-12-07T01:47:43;9.00;;;7.07;;
6412;SDS011;3239;48.714;9.472;2022-12-07T01:50:16;7.60;;;6.77;;
6412;SDS011;3239;48.714;9.472;2022-12-07T01:52:42;9.17;;;7.50;;
6412;SDS011;3239;48.714;9.472;2022-12-07T01:55:10;10.47;;;8.50;;
6412;SDS011;3239;48.714;9.472;2022-12-07T01:57:39;9.87;;;7.93;;
6412;SDS011;3239;48.714;9.472;2022-12-07T02:00:10;10.17;;;7.83;;
6412;SDS011;3239;48.714;9.472;2022-12-07T02:02:38;12.57;;;8.10;;
6412;SDS011;3239;48.714;9.472;2022-12-07T02:05:43;10.63;;;8.67;;
6412;SDS011;3239;48.714;9.472;2022-12-07T02:08:11;11.67;;;8.70;;
6412;SDS011;3239;48.714;9.472;2022-12-07T02:10:38;12.80;;;9.07;;
6412;SDS011;3239;48.714;9.472;2022-12-07T02:13:26;12.50;;;10.00;;
6412;SDS011;3239;48.714;9.472;2022-12-07T02:18:55;10.40;;;8.57;;
6412;SDS011;3239;48.714;9.472;2022-12-07T02:22:00;11.70;;;8.83;;
6412;SDS011;3239;48.714;9.472;2022-12-07T02:24:38;14.40;;;8.50;;
6412;SDS011;3239;48.714;9.472;2022-12-07T02:30:21;13.53;;;10.00;;
6412;SDS011;3239;48.714;9.472;2022-12-07T02:35:32;14.27;;;9.70;;
6412;SDS011;3239;48.714;9.472;2022-12-07T02:38:14;11.87;;;9.00;;
6412;SDS011;3239;48.714;9.472;2022-12-07T02:41:00;12.23;;;9.50;;
6412;SDS011;3239;48.714;9.472;2022-12-07T02:43:50;13.23;;;9.20;;
6412;SDS011;3239;48.714;9.472;2022-12-07T02:46:21;9.67;;;8.23;;
6412;SDS011;3239;48.714;9.472;2022-12-07T02:48:52;10.03;;;8.10;;
6412;SDS011;3239;48.714;9.472;2022-12-07T02:51:19;13.90;;;9.60;;
6412;SDS011;3239;48.714;9.472;2022-12-07T02:53:47;16.73;;;9.73;;
6412;SDS011;3239;48.714;9.472;2022-12-07T02:56:16;11.57;;;8.80;;
6412;SDS011;3239;48.714;9.472;2022-12-07T03:08:24;11.50;;;9.00;;
6412;SDS011;3239;48.714;9.472;2022-12-07T03:17:00;11.87;;;9.70;;
6412;SDS011;3239;48.714;9.472;2022-12-07T03:19:30;18.97;;;8.70;;
6412;SDS011;3239;48.714;9.472;2022-12-07T03:22:12;10.60;;;8.13;;
6412;SDS011;3239;48.714;9.472;2022-12-07T03:24:41;11.87;;;9.00;;
6412;SDS011;3239;48.714;9.472;2022-12-07T03:27:21;14.20;;;9.33;;
6412;SDS011;3239;48.714;9.472;2022-12-07T03:30:15;11.40;;;9.00;;
6412;SDS011;3239;48.714;9.472;2022-12-07T03:32:49;10.67;;;8.43;;
6412;SDS011;3239;48.714;9.472;2022-12-07T03:36:01;14.90;;;9.10;;
6412;SDS011;3239;48.714;9.472;2022-12-07T03:38:44;12.47;;;8.40;;
6412;SDS011;3239;48.714;9.472;2022-12-07T03:43:48;14.87;;;8.47;;
6412;SDS011;3239;48.714;9.472;2022-12-07T03:46:25;12.27;;;8.53;;
6412;SDS011;3239;48.714;9.472;2022-12-07T03:49:26;11.83;;;8.07;;
6412;SDS011;3239;48.714;9.472;2022-12-07T03:52:28;12.23;;;8.30;;
6412;SDS011;3239;48.714;9.472;2022-12-07T03:55:12;13.90;;;8.37;;
6412;SDS011;3239;48.714;9.472;2022-12-07T03:57:47;10.40;;;8.07;;
6412;SDS011;3239;48.714;9.472;2022-12-07T04:00:18;13.07;;;8.10;;
6412;SDS011;3239;48.714;9.472;2022-12-07T04:02:45;9.70;;;7.43;;
6412;SDS011;3239;48.714;9.472;2022-12-07T04:05:12;12.47;;;8.87;;
6412;SDS011;3239;48.714;9.472;2022-12-07T04:07:38;11.57;;;8.93;;
6412;SDS011;3239;48.714;9.472;2022-12-07T04:10:04;12.07;;;8.50;;
6412;SDS011;3239;48.714;9.472;2022-12-07T04:12:31;9.93;;;8.70;;
6412;SDS011;3239;48.714;9.472;2022-12-07T04:14:58;10.77;;;8.13;;
6412;SDS011;3239;48.714;9.472;2022-12-07T04:17:25;9.90;;;7.97;;
6412;SDS011;3239;48.714;9.472;2022-12-07T04:19:50;11.73;;;8.53;;
6412;SDS011;3239;48.714;9.472;2022-12-07T04:22:16;11.40;;;8.40;;
6412;SDS011;3239;48.714;9.472;2022-12-07T04:24:42;13.07;;;9.03;;
6412;SDS011;3239;48.714;9.472;2022-12-07T04:27:09;15.00;;;9.70;;
6412;SDS011;3239;48.714;9.472;2022-12-07T04:29:34;15.40;;;8.50;;
6412;SDS011;3239;48.714;9.472;2022-12-07T04:32:01;11.03;;;8.50;;
6412;SDS011;3239;48.714;9.472;2022-12-07T04:34:30;12.17;;;8.50;;
6412;SDS011;3239;48.714;9.472;2022-12-07T04:36:56;12.23;;;8.73;;
6412;SDS011;3239;48.714;9.472;2022-12-07T04:39:23;13.60;;;8.73;;
6412;SDS011;3239;48.714;9.472;2022-12-07T04:41:55;13.00;;;8.47;;
6412;SDS011;3239;48.714;9.472;2022-12-07T04:44:23;11.57;;;9.10;;
6412;SDS011;3239;48.714;9.472;2022-12-07T04:46:51;11.93;;;9.00;;
6412;SDS011;3239;48.714;9.472;2022-12-07T04:49:18;12.70;;;9.10;;
6412;SDS011;3239;48.714;9.472;2022-12-07T04:51:45;11.80;;;8.87;;
6412;SDS011;3239;48.714;9.472;2022-12-07T04:54:12;11.23;;;8.40;;
6412;SDS011;3239;48.714;9.472;2022-12-07T04:56:40;12.73;;;8.20;;
6412;SDS011;3239;48.714;9.472;2022-12-07T04:59:06;14.37;;;8.90;;
6412;SDS011;3239;48.714;9.472;2022-12-07T05:01:33;17.53;;;9.83;;
6412;SDS011;3239;48.714;9.472;2022-12-07T05:03:59;13.70;;;8.80;;
6412;SDS011;3239;48.714;9.472;2022-12-07T05:06:25;12.63;;;9.27;;
6412;SDS011;3239;48.714;9.472;2022-12-07T05:08:51;15.30;;;10.30;;
6412;SDS011;3239;48.714;9.472;2022-12-07T05:11:17;25.00;;;14.60;;
6412;SDS011;3239;48.714;9.472;2022-12-07T05:14:03;19.63;;;12.43;;
6412;SDS011;3239;48.714;9.472;2022-12-07T05:16:39;23.10;;;13.03;;
6412;SDS011;3239;48.714;9.472;2022-12-07T05:19:06;19.87;;;12.90;;
6412;SDS011;3239;48.714;9.472;2022-12-07T05:21:32;17.53;;;11.70;;
6412;SDS011;3239;48.714;9.472;2022-12-07T05:23:58;17.90;;;10.60;;
6412;SDS011;3239;48.714;9.472;2022-12-07T05:26:23;18.43;;;11.13;;
6412;SDS011;3239;48.714;9.472;2022-12-07T05:28:53;19.83;;;11.20;;
6412;SDS011;3239;48.714;9.472;2022-12-07T05:31:21;17.27;;;10.30;;
6412;SDS011;3239;48.714;9.472;2022-12-07T05:33:48;16.37;;;10.90;;
6412;SDS011;3239;48.714;9.472;2022-12-07T05:36:13;19.57;;;11.43;;
6412;SDS011;3239;48.714;9.472;2022-12-07T05:38:39;18.00;;;12.03;;
6412;SDS011;3239;48.714;9.472;2022-12-07T05:41:06;19.33;;;11.50;;
6412;SDS011;3239;48.714;9.472;2022-12-07T05:43:53;18.67;;;11.50;;
6412;SDS011;3239;48.714;9.472;2022-12-07T05:46:19;18.43;;;11.60;;
6412;SDS011;3239;48.714;9.472;2022-12-07T05:48:47;17.87;;;12.00;;
6412;SDS011;3239;48.714;9.472;2022-12-07T05:51:13;19.90;;;10.80;;
6412;SDS011;3239;48.714;9.472;2022-12-07T05:53:38;18.03;;;11.67;;
6412;SDS011;3239;48.714;9.472;2022-12-07T05:56:04;18.87;;;12.10;;
6412;SDS011;3239;48.714;9.472;2022-12-07T05:58:30;17.90;;;11.33;;
6412;SDS011;3239;48.714;9.472;2022-12-07T06:01:14;16.57;;;11.00;;
6412;SDS011;3239;48.714;9.472;2022-12-07T06:03:40;16.87;;;10.90;;
6412;SDS011;3239;48.714;9.472;2022-12-07T06:06:06;18.90;;;11.07;;
6412;SDS011;3239;48.714;9.472;2022-12-07T06:08:32;15.17;;;10.53;;
6412;SDS011;3239;48.714;9.472;2022-12-07T06:10:57;16.53;;;10.10;;
6412;SDS011;3239;48.714;9.472;2022-12-07T06:13:41;20.03;;;10.40;;
6412;SDS011;3239;48.714;9.472;2022-12-07T06:16:07;23.93;;;12.13;;
6412;SDS011;3239;48.714;9.472;2022-12-07T06:18:33;19.47;;;11.73;;
6412;SDS011;3239;48.714;9.472;2022-12-07T06:21:00;15.93;;;10.03;;
6412;SDS011;3239;48.714;9.472;2022-12-07T06:23:25;16.50;;;11.40;;
6412;SDS011;3239;48.714;9.472;2022-12-07T06:25:51;15.50;;;10.33;;
6412;SDS011;3239;48.714;9.472;2022-12-07T06:28:17;15.20;;;10.70;;
6412;SDS011;3239;48.714;9.472;2022-12-07T06:30:42;17.53;;;11.10;;
6412;SDS011;3239;48.714;9.472;2022-12-07T06:33:08;14.70;;;10.27;;
6412;SDS011;3239;48.714;9.472;2022-12-07T06:35:34;17.30;;;10.77;;
6412;SDS011;3239;48.714;9.472;2022-12-07T06:37:59;15.40;;;10.67;;
6412;SDS011;3239;48.714;9.472;2022-12-07T06:40:25;13.60;;;9.80;;
6412;SDS011;3239;48.714;9.472;2022-12-07T06:42:51;16.20;;;10.57;;
6412;SDS011;3239;48.714;9.472;2022-12-07T06:45:16;17.00;;;9.47;;
6412;SDS011;3239;48.714;9.472;2022-12-07T06:47:42;16.23;;;10.53;;
6412;SDS011;3239;48.714;9.472;2022-12-07T06:50:08;19.00;;;10.13;;
6412;SDS011;3239;48.714;9.472;2022-12-07T06:52:34;16.90;;;10.43;;
6412;SDS011;3239;48.714;9.472;2022-12-07T06:55:00;15.50;;;10.27;;
6412;SDS011;3239;48.714;9.472;2022-12-07T06:57:26;18.67;;;11.23;;
6412;SDS011;3239;48.714;9.472;2022-12-07T06:59:51;19.43;;;10.43;;
6412;SDS011;3239;48.714;9.472;2022-12-07T07:02:17;15.30;;;10.43;;
6412;SDS011;3239;48.714;9.472;2022-12-07T07:04:43;18.60;;;11.00;;
6412;SDS011;3239;48.714;9.472;2022-12-07T07:07:08;13.97;;;9.90;;
6412;SDS011;3239;48.714;9.472;2022-12-07T07:09:34;13.70;;;9.93;;
6412;SDS011;3239;48.714;9.472;2022-12-07T07:12:00;15.20;;;10.90;;
6412;SDS011;3239;48.714;9.472;2022-12-07T07:14:26;14.97;;;10.10;;
6412;SDS011;3239;48.714;9.472;2022-12-07T07:16:52;21.50;;;12.47;;
6412;SDS011;3239;48.714;9.472;2022-12-07T07:19:18;15.47;;;11.30;;
6412;SDS011;3239;48.714;9.472;2022-12-07T07:21:43;15.33;;;11.37;;
6412;SDS011;3239;48.714;9.472;2022-12-07T07:24:09;14.97;;;10.00;;
6412;SDS011;3239;48.714;9.472;2022-12-07T07:26:35;18.67;;;11.90;;
6412;SDS011;3239;48.714;9.472;2022-12-07T07:29:01;14.53;;;11.20;;
6412;SDS011;3239;48.714;9.472;2022-12-07T07:31:27;19.43;;;12.00;;
6412;SDS011;3239;48.714;9.472;2022-12-07T07:33:52;17.13;;;10.90;;
6412;SDS011;3239;48.714;9.472;2022-12-07T07:36:18;24.10;;;12.30;;
6412;SDS011;3239;48.714;9.472;2022-12-07T07:38:44;23.90;;;15.20;;
6412;SDS011;3239;48.714;9.472;2022-12-07T07:41:10;33.93;;;18.60;;
6412;SDS011;3239;48.714;9.472;2022-12-07T07:43:35;27.63;;;16.63;;
6412;SDS011;3239;48.714;9.472;2022-12-07T07:46:01;23.47;;;15.37;;
6412;SDS011;3239;48.714;9.472;2022-12-07T07:48:27;25.70;;;14.03;;
6412;SDS011;3239;48.714;9.472;2022-12-07T07:50:53;29.07;;;17.03;;
6412;SDS011;3239;48.714;9.472;2022-12-07T07:53:18;19.07;;;11.70;;
6412;SDS011;3239;48.714;9.472;2022-12-07T07:55:51;21.83;;;12.57;;
6412;SDS011;3239;48.714;9.472;2022-12-07T07:58:20;17.03;;;11.73;;
6412;SDS011;3239;48.714;9.472;2022-12-07T08:00:46;17.23;;;11.30;;
6412;SDS011;3239;48.714;9.472;2022-12-07T08:03:12;16.40;;;11.40;;
6412;SDS011;3239;48.714;9.472;2022-12-07T08:05:38;18.20;;;11.60;;
6412;SDS011;3239;48.714;9.472;2022-12-07T08:08:04;16.57;;;11.07;;
6412;SDS011;3239;48.714;9.472;2022-12-07T08:10:30;18.00;;;11.00;;
6412;SDS011;3239;48.714;9.472;2022-12-07T08:12:57;21.10;;;12.43;;
6412;SDS011;3239;48.714;9.472;2022-12-07T08:15:35;13.20;;;9.43;;
6412;SDS011;3239;48.714;9.472;2022-12-07T08:18:03;13.47;;;10.40;;
6412;SDS011;3239;48.714;9.472;2022-12-07T08:20:30;13.23;;;9.60;;
6412;SDS011;3239;48.714;9.472;2022-12-07T08:22:57;15.90;;;9.20;;
6412;SDS011;3239;48.714;9.472;2022-12-07T08:25:23;14.80;;;10.37;;
6412;SDS011;3239;48.714;9.472;2022-12-07T08:27:50;11.10;;;9.10;;
6412;SDS011;3239;48.714;9.472;2022-12-07T08:30:17;14.57;;;10.47;;
6412;SDS011;3239;48.714;9.472;2022-12-07T08:32:44;15.47;;;9.83;;
6412;SDS011;3239;48.714;9.472;2022-12-07T08:35:10;14.80;;;10.80;;
6412;SDS011;3239;48.714;9.472;2022-12-07T08:37:36;14.77;;;9.97;;
6412;SDS011;3239;48.714;9.472;2022-12-07T08:40:02;12.87;;;9.67;;
6412;SDS011;3239;48.714;9.472;2022-12-07T08:42:29;11.93;;;8.50;;
6412;SDS011;3239;48.714;9.472;2022-12-07T08:45:03;14.50;;;9.60;;
6412;SDS011;3239;48.714;9.472;2022-12-07T08:47:35;13.13;;;8.47;;
6412;SDS011;3239;48.714;9.472;2022-12-07T08:50:05;16.90;;;8.23;;
6412;SDS011;3239;48.714;9.472;2022-12-07T08:52:34;12.80;;;9.03;;
6412;SDS011;3239;48.714;9.472;2022-12-07T08:55:02;14.70;;;9.23;;
6412;SDS011;3239;48.714;9.472;2022-12-07T08:57:29;15.40;;;8.23;;
6412;SDS011;3239;48.714;9.472;2022-12-07T08:59:58;16.70;;;8.30;;
6412;SDS011;3239;48.714;9.472;2022-12-07T09:02:24;9.40;;;7.53;;
6412;SDS011;3239;48.714;9.472;2022-12-07T09:04:50;10.60;;;7.70;;
6412;SDS011;3239;48.714;9.472;2022-12-07T09:07:15;10.33;;;7.50;;
6412;SDS011;3239;48.714;9.472;2022-12-07T09:09:41;10.53;;;8.60;;
6412;SDS011;3239;48.714;9.472;2022-12-07T09:12:07;12.33;;;8.80;;
6412;SDS011;3239;48.714;9.472;2022-12-07T09:14:35;11.43;;;7.57;;
6412;SDS011;3239;48.714;9.472;2022-12-07T09:17:08;10.07;;;7.47;;
6412;SDS011;3239;48.714;9.472;2022-12-07T09:19:36;13.33;;;7.50;;
6412;SDS011;3239;48.714;9.472;2022-12-07T09:22:03;7.10;;;6.00;;
6412;SDS011;3239;48.714;9.472;2022-12-07T09:24:29;8.03;;;6.50;;
6412;SDS011;3239;48.714;9.472;2022-12-07T09:26:56;7.40;;;6.30;;
6412;SDS011;3239;48.714;9.472;2022-12-07T09:29:23;8.20;;;6.33;;
6412;SDS011;3239;48.714;9.472;2022-12-07T09:31:49;6.80;;;5.77;;
6412;SDS011;3239;48.714;9.472;2022-12-07T09:34:17;10.47;;;7.03;;
6412;SDS011;3239;48.714;9.472;2022-12-07T09:36:43;7.57;;;6.60;;
6412;SDS011;3239;48.714;9.472;2022-12-07T09:39:09;9.83;;;6.90;;
6412;SDS011;3239;48.714;9.472;2022-12-07T09:41:37;7.00;;;6.30;;
6412;SDS011;3239;48.714;9.472;2022-12-07T09:44:09;8.83;;;6.90;;
6412;SDS011;3239;48.714;9.472;2022-12-07T09:46:45;6.50;;;5.70;;
6412;SDS011;3239;48.714;9.472;2022-12-07T09:49:12;6.67;;;5.93;;
6412;SDS011;3239;48.714;9.472;2022-12-07T09:51:45;7.10;;;6.20;;
6412;SDS011;3239;48.714;9.472;2022-12-07T09:54:12;7.60;;;6.60;;
6412;SDS011;3239;48.714;9.472;2022-12-07T09:56:41;9.30;;;6.17;;
6412;SDS011;3239;48.714;9.472;2022-12-07T09:59:16;16.13;;;6.37;;
6412;SDS011;3239;48.714;9.472;2022-12-07T10:01:43;7.67;;;6.87;;
6412;SDS011;3239;48.714;9.472;2022-12-07T10:04:16;12.93;;;7.03;;
6412;SDS011;3239;48.714;9.472;2022-12-07T10:06:50;7.70;;;6.70;;
6412;SDS011;3239;48.714;9.472;2022-12-07T10:09:17;7.17;;;5.90;;
6412;SDS011;3239;48.714;9.472;2022-12-07T10:12:08;10.23;;;6.70;;
6412;SDS011;3239;48.714;9.472;2022-12-07T10:14:49;9.67;;;6.00;;
6412;SDS011;3239;48.714;9.472;2022-12-07T10:17:37;7.30;;;5.43;;
6412;SDS011;3239;48.714;9.472;2022-12-07T10:25:49;6.73;;;5.30;;
6412;SDS011;3239;48.714;9.472;2022-12-07T10:28:19;6.40;;;5.27;;
6412;SDS011;3239;48.714;9.472;2022-12-07T10:30:47;7.77;;;5.27;;
6412;SDS011;3239;48.714;9.472;2022-12-07T10:33:40;6.13;;;5.30;;
6412;SDS011;3239;48.714;9.472;2022-12-07T10:39:11;6.53;;;5.63;;
6412;SDS011;3239;48.714;9.472;2022-12-07T10:41:56;9.50;;;5.00;;
6412;SDS011;3239;48.714;9.472;2022-12-07T10:44:31;7.40;;;5.53;;
6412;SDS011;3239;48.714;9.472;2022-12-07T10:53:34;6.80;;;5.47;;
6412;SDS011;3239;48.714;9.472;2022-12-07T11:22:09;7.93;;;5.53;;
6412;SDS011;3239;48.714;9.472;2022-12-07T11:24:55;7.37;;;6.17;;
6412;SDS011;3239;48.714;9.472;2022-12-07T11:27:50;39.60;;;11.20;;
6412;SDS011;3239;48.714;9.472;2022-12-07T11:33:46;7.30;;;6.07;;
6412;SDS011;3239;48.714;9.472;2022-12-07T11:41:55;6.10;;;5.27;;
6412;SDS011;3239;48.714;9.472;2022-12-07T11:55:40;6.67;;;5.30;;
6412;SDS011;3239;48.714;9.472;2022-12-07T11:58:31;8.83;;;5.73;;
6412;SDS011;3239;48.714;9.472;2022-12-07T12:17:47;8.33;;;5.10;;
6412;SDS011;3239;48.714;9.472;2022-12-07T12:20:50;6.80;;;5.00;;
6412;SDS011;3239;48.714;9.472;2022-12-07T12:23:35;7.27;;;5.40;;
6412;SDS011;3239;48.714;9.472;2022-12-07T12:26:07;6.50;;;4.70;;
6412;SDS011;3239;48.714;9.472;2022-12-07T12:39:17;14.90;;;5.90;;
6412;SDS011;3239;48.714;9.472;2022-12-07T13:02:27;10.70;;;5.70;;
6412;SDS011;3239;48.714;9.472;2022-12-07T13:05:00;8.10;;;4.97;;
6412;SDS011;3239;48.714;9.472;2022-12-07T13:10:29;8.83;;;5.70;;
6412;SDS011;3239;48.714;9.472;2022-12-07T13:20:58;7.93;;;4.20;;
6412;SDS011;3239;48.714;9.472;2022-12-07T13:29:06;7.73;;;4.57;;
6412;SDS011;3239;48.714;9.472;2022-12-07T13:36:53;4.93;;;4.30;;
6412;SDS011;3239;48.714;9.472;2022-12-07T13:39:21;5.37;;;3.80;;
6412;SDS011;3239;48.714;9.472;2022-12-07T13:41:54;6.10;;;4.30;;
6412;SDS011;3239;48.714;9.472;2022-12-07T13:44:27;4.23;;;3.83;;
6412;SDS011;3239;48.714;9.472;2022-12-07T13:47:01;5.33;;;4.50;;
6412;SDS011;3239;48.714;9.472;2022-12-07T13:49:56;5.30;;;4.80;;
6412;SDS011;3239;48.714;9.472;2022-12-07T13:52:24;10.53;;;5.03;;
6412;SDS011;3239;48.714;9.472;2022-12-07T13:54:56;6.30;;;4.40;;
6412;SDS011;3239;48.714;9.472;2022-12-07T13:57:31;5.70;;;4.83;;
6412;SDS011;3239;48.714;9.472;2022-12-07T14:00:04;11.40;;;4.60;;
6412;SDS011;3239;48.714;9.472;2022-12-07T14:05:37;5.70;;;4.97;;
6412;SDS011;3239;48.714;9.472;2022-12-07T14:10:55;6.53;;;5.10;;
6412;SDS011;3239;48.714;9.472;2022-12-07T14:16:33;8.03;;;4.90;;
6412;SDS011;3239;48.714;9.472;2022-12-07T14:19:06;7.37;;;5.20;;
6412;SDS011;3239;48.714;9.472;2022-12-07T14:25:00;5.93;;;4.77;;
6412;SDS011;3239;48.714;9.472;2022-12-07T14:27:39;11.80;;;5.60;;
6412;SDS011;3239;48.714;9.472;2022-12-07T14:30:16;5.20;;;4.40;;
6412;SDS011;3239;48.714;9.472;2022-12-07T14:32:43;6.40;;;5.10;;
6412;SDS011;3239;48.714;9.472;2022-12-07T14:35:14;8.80;;;5.70;;
6412;SDS011;3239;48.714;9.472;2022-12-07T14:37:43;8.67;;;5.30;;
6412;SDS011;3239;48.714;9.472;2022-12-07T14:40:22;9.13;;;5.67;;
6412;SDS011;3239;48.714;9.472;2022-12-07T14:42:55;5.20;;;4.70;;
6412;SDS011;3239;48.714;9.472;2022-12-07T14:45:26;8.07;;;5.60;;
6412;SDS011;3239;48.714;9.472;2022-12-07T14:47:54;12.63;;;6.23;;
6412;SDS011;3239;48.714;9.472;2022-12-07T14:50:20;7.10;;;5.50;;
6412;SDS011;3239;48.714;9.472;2022-12-07T14:52:48;6.17;;;5.50;;
6412;SDS011;3239;48.714;9.472;2022-12-07T14:55:23;5.60;;;5.00;;
6412;SDS011;3239;48.714;9.472;2022-12-07T14:57:50;9.33;;;5.77;;
6412;SDS011;3239;48.714;9.472;2022-12-07T15:00:16;7.00;;;5.90;;
6412;SDS011;3239;48.714;9.472;2022-12-07T15:02:45;9.00;;;6.63;;
6412;SDS011;3239;48.714;9.472;2022-12-07T15:05:12;8.27;;;6.60;;
6412;SDS011;3239;48.714;9.472;2022-12-07T15:07:38;6.13;;;5.53;;
6412;SDS011;3239;48.714;9.472;2022-12-07T15:10:04;7.10;;;5.97;;
6412;SDS011;3239;48.714;9.472;2022-12-07T15:12:39;7.83;;;5.67;;
6412;SDS011;3239;48.714;9.472;2022-12-07T15:15:05;6.63;;;5.27;;
6412;SDS011;3239;48.714;9.472;2022-12-07T15:17:31;11.33;;;7.07;;
6412;SDS011;3239;48.714;9.472;2022-12-07T15:19:57;11.20;;;6.93;;
6412;SDS011;3239;48.714;9.472;2022-12-07T15:22:23;10.23;;;6.87;;
6412;SDS011;3239;48.714;9.472;2022-12-07T15:24:48;10.20;;;6.60;;
6412;SDS011;3239;48.714;9.472;2022-12-07T15:27:14;8.03;;;6.00;;
6412;SDS011;3239;48.714;9.472;2022-12-07T15:29:40;10.90;;;7.20;;
6412;SDS011;3239;48.714;9.472;2022-12-07T15:32:05;12.77;;;7.80;;
6412;SDS011;3239;48.714;9.472;2022-12-07T15:34:31;13.17;;;8.23;;
6412;SDS011;3239;48.714;9.472;2022-12-07T15:36:57;10.10;;;6.90;;
6412;SDS011;3239;48.714;9.472;2022-12-07T15:39:23;7.93;;;5.50;;
6412;SDS011;3239;48.714;9.472;2022-12-07T15:41:49;7.40;;;5.97;;
6412;SDS011;3239;48.714;9.472;2022-12-07T15:44:14;6.13;;;5.53;;
6412;SDS011;3239;48.714;9.472;2022-12-07T15:46:59;7.13;;;5.60;;
6412;SDS011;3239;48.714;9.472;2022-12-07T15:49:25;8.10;;;6.57;;
6412;SDS011;3239;48.714;9.472;2022-12-07T15:51:52;7.13;;;6.10;;
6412;SDS011;3239;48.714;9.472;2022-12-07T15:54:19;7.43;;;5.77;;
6412;SDS011;3239;48.714;9.472;2022-12-07T15:56:48;7.20;;;6.00;;
6412;SDS011;3239;48.714;9.472;2022-12-07T15:59:14;6.00;;;5.10;;
6412;SDS011;3239;48.714;9.472;2022-12-07T16:01:41;7.90;;;6.30;;
6412;SDS011;3239;48.714;9.472;2022-12-07T16:04:06;7.37;;;6.67;;
6412;SDS011;3239;48.714;9.472;2022-12-07T16:06:32;6.30;;;5.60;;
6412;SDS011;3239;48.714;9.472;2022-12-07T16:08:58;7.83;;;5.87;;
6412;SDS011;3239;48.714;9.472;2022-12-07T16:11:24;11.43;;;6.87;;
6412;SDS011;3239;48.714;9.472;2022-12-07T16:13:50;14.60;;;7.60;;
6412;SDS011;3239;48.714;9.472;2022-12-07T16:16:16;12.30;;;7.17;;
6412;SDS011;3239;48.714;9.472;2022-12-07T16:18:44;8.63;;;6.63;;
6412;SDS011;3239;48.714;9.472;2022-12-07T16:21:12;9.33;;;7.40;;
6412;SDS011;3239;48.714;9.472;2022-12-07T16:23:39;13.53;;;9.27;;
6412;SDS011;3239;48.714;9.472;2022-12-07T16:26:10;13.77;;;8.60;;
6412;SDS011;3239;48.714;9.472;2022-12-07T16:28:41;13.40;;;7.57;;
6412;SDS011;3239;48.714;9.472;2022-12-07T16:31:12;11.97;;;7.50;;
6412;SDS011;3239;48.714;9.472;2022-12-07T16:33:41;14.97;;;8.70;;
6412;SDS011;3239;48.714;9.472;2022-12-07T16:36:08;12.67;;;8.23;;
6412;SDS011;3239;48.714;9.472;2022-12-07T16:38:36;15.57;;;8.13;;
6412;SDS011;3239;48.714;9.472;2022-12-07T16:41:03;10.13;;;7.43;;
6412;SDS011;3239;48.714;9.472;2022-12-07T16:43:31;9.80;;;8.10;;
6412;SDS011;3239;48.714;9.472;2022-12-07T16:45:57;10.37;;;7.73;;
6412;SDS011;3239;48.714;9.472;2022-12-07T16:48:23;19.70;;;11.10;;
6412;SDS011;3239;48.714;9.472;2022-12-07T16:50:49;15.07;;;9.77;;
6412;SDS011;3239;48.714;9.472;2022-12-07T16:53:15;12.43;;;8.33;;
6412;SDS011;3239;48.714;9.472;2022-12-07T16:55:42;14.77;;;9.23;;
6412;SDS011;3239;48.714;9.472;2022-12-07T16:58:10;10.50;;;8.20;;
6412;SDS011;3239;48.714;9.472;2022-12-07T17:00:38;9.63;;;7.50;;
6412;SDS011;3239;48.714;9.472;2022-12-07T17:03:05;12.73;;;8.27;;
6412;SDS011;3239;48.714;9.472;2022-12-07T17:05:32;11.20;;;8.43;;
6412;SDS011;3239;48.714;9.472;2022-12-07T17:07:58;9.30;;;8.30;;
6412;SDS011;3239;48.714;9.472;2022-12-07T17:10:26;11.20;;;7.97;;
6412;SDS011;3239;48.714;9.472;2022-12-07T17:12:52;12.33;;;7.87;;
6412;SDS011;3239;48.714;9.472;2022-12-07T17:15:17;11.00;;;7.90;;
6412;SDS011;3239;48.714;9.472;2022-12-07T17:17:57;10.67;;;7.67;;
6412;SDS011;3239;48.714;9.472;2022-12-07T17:20:25;11.63;;;8.10;;
6412;SDS011;3239;48.714;9.472;2022-12-07T17:22:52;13.00;;;8.93;;
6412;SDS011;3239;48.714;9.472;2022-12-07T17:25:18;13.23;;;8.30;;
6412;SDS011;3239;48.714;9.472;2022-12-07T17:27:45;16.40;;;10.33;;
6412;SDS011;3239;48.714;9.472;2022-12-07T17:30:12;12.73;;;8.33;;
6412;SDS011;3239;48.714;9.472;2022-12-07T17:32:38;14.17;;;8.50;;
6412;SDS011;3239;48.714;9.472;2022-12-07T17:35:04;15.03;;;8.87;;
6412;SDS011;3239;48.714;9.472;2022-12-07T17:37:32;12.10;;;9.17;;
6412;SDS011;3239;48.714;9.472;2022-12-07T17:39:57;12.97;;;8.63;;
6412;SDS011;3239;48.714;9.472;2022-12-07T17:42:26;15.33;;;9.90;;
6412;SDS011;3239;48.714;9.472;2022-12-07T17:45:02;12.80;;;9.20;;
6412;SDS011;3239;48.714;9.472;2022-12-07T17:47:29;21.43;;;11.87;;
6412;SDS011;3239;48.714;9.472;2022-12-07T17:49:55;28.17;;;13.80;;
6412;SDS011;3239;48.714;9.472;2022-12-07T17:52:21;26.57;;;13.03;;
6412;SDS011;3239;48.714;9.472;2022-12-07T17:55:05;29.10;;;14.13;;
6412;SDS011;3239;48.714;9.472;2022-12-07T17:57:31;24.80;;;13.30;;
6412;SDS011;3239;48.714;9.472;2022-12-07T17:59:57;26.57;;;12.97;;
6412;SDS011;3239;48.714;9.472;2022-12-07T18:02:23;26.10;;;13.33;;
6412;SDS011;3239;48.714;9.472;2022-12-07T18:04:49;39.23;;;19.00;;
6412;SDS011;3239;48.714;9.472;2022-12-07T18:07:15;46.30;;;20.23;;
6412;SDS011;3239;48.714;9.472;2022-12-07T18:09:40;38.30;;;16.97;;
6412;SDS011;3239;48.714;9.472;2022-12-07T18:12:07;31.07;;;13.23;;
6412;SDS011;3239;48.714;9.472;2022-12-07T18:14:33;12.57;;;8.00;;
6412;SDS011;3239;48.714;9.472;2022-12-07T18:16:59;13.23;;;8.10;;